Terminal Aerodrome Forecast
Issued by NWS Caribou, ME

Current Version | Previous Version | Text Only | Print | Product List | Glossary On
Versions: 1 2 3 4 5 6 7 8 9 10 11 12 13 14 15 16 17 18 19 20 21
000 FTUS41 KCAR 022208 AAA TAFBGR TAF AMD KBGR 022208Z 0222/0318 18010KT P6SM SCT060 FM030000 17004KT P6SM SCT250 FM031600 19012G18KT P6SM SCT250=

USA.gov is the U.S. government's official web portal to all federal, state and local government web resources and services.